Nearby METAR Reports

 

K8A0 - Albertville Muni, Alabama, USA
Distance from station: SW 1mi, 2km
Updated: 05/22/2019 2:35pm
Clear
Clear
 Wind from S
Wind: S 8 mph , 13 km/h
Temperature: 86°F , 30°C
Dew Point: 54°F , 12°C
Humidity: 33%
Barometer: 30.10 inHg , 1019.3 hPa
Clouds: Clear
Visibility: 10 miles , 16 km
2019/05/22 19:35 K8A0 221935Z AUTO 18007KT 139V199 10SM CLR 30/12 A3010 RMK AO2
KGAD - Gadsden Muni, Alabama, USA
Distance from station: SSE 21mi, 35km
Updated: 05/22/2019 1:56pm
Clear
Clear
 Wind from varies
Wind: varies 6 mph , 9 km/h
Temperature: 88°F , 31°C
Heat Index: 88°F , 31°C
Dew Point: 61°F , 16°C
Humidity: 40%
Barometer: 30.10 inHg , 1019.3 hPa
Clouds: Clear
Visibility: 10 miles , 16 km
2019/05/22 18:56 KGAD 221856Z AUTO VRB05KT 10SM CLR 31/16 A3010 RMK AO2 SLP190 T03060161
 
K4A6 - Scottsboro, Alabama, USA
Distance from station: NNE 33mi, 53km
Updated: 05/22/2019 2:35pm
Clear
Clear
 Wind from S
Wind: S 10 mph , 17 km/h, Gust: 18 mph , 30 km/h
Temperature: 88°F , 31°C
Heat Index: 89°F , 32°C
Dew Point: 63°F , 17°C
Humidity: 43%
Barometer: 30.08 inHg , 1018.6 hPa
Clouds: Clear
Visibility: 10 miles , 16 km
2019/05/22 19:35 K4A6 221935Z AUTO 19009G16KT 10SM CLR 31/17 A3008 RMK AO2
K4A9 - Ft Payne/Isbell, Alabama, USA
Distance from station: ENE 33mi, 54km
Updated: 05/22/2019 2:35pm
Clear
Clear
 Wind from SW
Wind: SW 14 mph , 22 km/h, Gust: 18 mph , 30 km/h
Temperature: 88°F , 31°C
Heat Index: 88°F , 31°C
Dew Point: 61°F , 16°C
Humidity: 40%
Barometer: 30.09 inHg , 1019 hPa
Clouds: Clear
Visibility: 10 miles , 16 km
2019/05/22 19:35 K4A9 221935Z AUTO 22012G16KT 10SM CLR 31/16 A3009 RMK AO2 T03120159
 
KCMD - Cullman/Folsom F, Alabama, USA
Distance from station: W 35mi, 57km
Updated: 05/22/2019 2:35pm
Clear
Clear
 Wind from S
Wind: S 8 mph , 13 km/h, Gust: 16 mph , 26 km/h
Temperature: 88°F , 31°C
Dew Point: 59°F , 15°C
Humidity: 38%
Barometer: 30.10 inHg , 1019.3 hPa
Clouds: Clear
Visibility: 10 miles , 16 km
2019/05/22 19:35 KCMD 221935Z AUTO 17007G14KT 10SM CLR 31/15 A3010 RMK AO2 T03050145
KHUA - Redstone Arsenal, Alabama, USA
Distance from station: NW 40mi, 64km
Updated: 05/22/2019 1:58pm
Clear
Clear
 Wind from SSW
Wind: SSW 15 mph , 24 km/h, Gust: 21 mph , 33 km/h
Temperature: 88°F , 31°C
Heat Index: 89°F , 32°C
Dew Point: 63°F , 17°C
Humidity: 43%
Barometer: 30.04 inHg , 1017.3 hPa
Clouds: Clear
Visibility: 10 miles , 16 km
2019/05/22 18:58 KHUA 221858Z AUTO 21013G18KT 10SM CLR 31/17 A3004 RMK AO2 SLP167 T03140173
 
KHSV - Huntsville, Alabama, USA
Distance from station: NW 42mi, 68km
Updated: 05/22/2019 1:53pm
Few Clouds
Few Clouds
 Wind from SSE
Wind: SSE 15 mph , 24 km/h, Gust: 22 mph , 35 km/h
Temperature: 91°F , 33°C
Dew Point: 61°F , 16°C
Humidity: 36%
Barometer: 30.05 inHg , 1017.6 hPa
Clouds: Few Clouds
Visibility: 10 miles , 16 km
Cloud details: Few Clouds 5000 ft
2019/05/22 18:53 KHSV 221853Z 16013G19KT 10SM FEW050 33/16 A3005 RMK AO2 SLP167 T03280161
KMDQ - Huntsville/Madis, Alabama, USA
Distance from station: NNW 47mi, 75km
Updated: 05/22/2019 2:35pm

 Wind from S
Wind: S 12 mph , 19 km/h
Temperature: 90°F , 32°C
Dew Point: 59°F , 15°C
Humidity: 36%
Barometer: 30.06 inHg , 1017.9 hPa
Visibility: 10 miles , 16 km
2019/05/22 19:35 KMDQ 221935Z AUTO 17010KT 10SM 32/15 A3006 RMK A02 T03210152
 
KASN - Talladega, Alabama, USA
Distance from station: SSE 48mi, 77km
Updated: 05/22/2019 2:35pm
Clear
Clear
 Wind from SSW
Wind: SSW 8 mph , 13 km/h
Temperature: 90°F , 32°C
Dew Point: 57°F , 14°C
Humidity: 33%
Barometer: 30.09 inHg , 1019 hPa
Clouds: Clear
Visibility: 10 miles , 16 km
2019/05/22 19:35 KASN 221935Z AUTO 20007KT 10SM CLR 32/14 A3009 RMK AO2 T03150139
KDCU - Decatur, Alabama, USA
Distance from station: NW 49mi, 80km
Updated: 05/22/2019 1:53pm
Clear
Clear
 Wind from SSW
Wind: SSW 14 mph , 22 km/h
Temperature: 90°F , 32°C
Heat Index: 91°F , 33°C
Dew Point: 63°F , 17°C
Humidity: 41%
Barometer: 30.05 inHg , 1017.6 hPa
Clouds: Clear
Visibility: 10 miles , 16 km
2019/05/22 18:53 KDCU 221853Z AUTO 20012KT 10SM CLR 32/17 A3005 RMK AO2 SLP168 T03220167
 
KGKT - Sevierville, Tennessee, USA
Distance from station: NE 235mi, 378km
Updated: 05/22/2019 2:35pm
Clear
Clear
 Wind from NW
Wind: NW 7 mph , 11 km/h
Temperature: 91°F , 33°C
Heat Index: 93°F , 34°C
Dew Point: 64°F , 18°C
Humidity: 41%
Barometer: 30.07 inHg , 1018.3 hPa
Clouds: Clear
Visibility: 10 miles , 16 km
2019/05/22 19:35 KGKT 221935Z AUTO 31006KT 10SM CLR 33/18 A3007 RMK A01
KECP - Panama City, Florida, USA
Distance from station: S 330mi, 531km
Updated: 05/22/2019 1:53pm
Clear
Clear
 Wind from SE
Wind: SE 10 mph , 17 km/h
Temperature: 90°F , 32°C
Heat Index: 92°F , 33°C
Dew Point: 64°F , 18°C
Humidity: 43%
Barometer: 30.06 inHg , 1017.9 hPa
Clouds: Clear
Visibility: 10 miles , 16 km
2019/05/22 18:53 KECP 221853Z 14009KT 10SM CLR 32/18 A3006 RMK AO2 SLP191 T03220178
 
KNYL - Yuma MCAS, Arizona, USA
Distance from station: SW 1900mi, 3600km
Updated: 05/22/2019 1:57pm
Mostly cloudy
Mostly cloudy
 Wind from W
Wind: W 10 mph , 17 km/h, Gust: 18 mph , 30 km/h
Temperature: 73°F , 23°C
Dew Point: 36°F , 2°C
Humidity: 25%
Barometer: 29.69 inHg , 1005.4 hPa
Clouds: Mostly cloudy
Visibility: 7 miles , 11 km
Cloud details: Mostly cloudy 7000 ft
Mostly cloudy 18000 ft
2019/05/22 18:57 KNYL 221857Z 27009G16KT 210V300 7SM BKN070 BKN180 23/02 A2969 RMK AO2 SLP052 T02330017 $